Time;durP1;ratioP1;P1;durP2;ratioP2;P2;SDS_P1;SDS_P2;PMS_P1;PMS_P2;Temp;Humidity;BMP_temperature;BMP_pressure;BME280_temperature;BME280_humidity;BME280_pressure;Samples;Min_cycle;Max_cycle;Signal;HPM_P1;HPM_P2
2022/09/11 00:00:58;;;;;;;4.70;0.93;;;13.20;99.90;;;;;;5050885;28;20420;-66
2022/09/11 00:03:24;;;;;;;1.90;0.90;;;13.10;99.90;;;;;;5051579;28;20177;-66
2022/09/11 00:05:50;;;;;;;2.63;1.43;;;13.20;99.90;;;;;;5051396;28;20420;-66
2022/09/11 00:08:18;;;;;;;2.33;1.03;;;13.20;99.90;;;;;;5051355;28;20188;-67
2022/09/11 00:10:47;;;;;;;2.87;1.03;;;13.20;99.90;;;;;;5051467;28;20499;-66
2022/09/11 00:13:20;;;;;;;2.90;1.00;;;13.20;99.90;;;;;;5051288;28;20444;-67
2022/09/11 00:15:47;;;;;;;2.23;1.00;;;13.30;99.90;;;;;;5051015;28;20424;-66
2022/09/11 00:18:16;;;;;;;1.77;1.00;;;13.30;99.90;;;;;;5051711;28;20511;-66
2022/09/11 00:20:53;;;;;;;1.50;0.87;;;13.30;99.90;;;;;;5051142;28;20470;-66
2022/09/11 00:23:21;;;;;;;2.10;1.00;;;13.30;99.90;;;;;;5039041;28;20420;-66
2022/09/11 00:25:48;;;;;;;1.80;1.00;;;13.20;99.90;;;;;;5051480;28;20420;-66
2022/09/11 00:28:19;;;;;;;2.50;1.17;;;13.30;99.90;;;;;;5051740;28;21122;-66
2022/09/11 00:30:46;;;;;;;2.33;0.97;;;13.20;99.90;;;;;;5049981;28;20504;-66
2022/09/11 00:33:13;;;;;;;5.33;1.00;;;13.20;99.90;;;;;;5051262;28;20424;-66
2022/09/11 00:35:39;;;;;;;12.33;1.90;;;13.20;99.90;;;;;;5037786;28;20420;-66
2022/09/11 00:38:07;;;;;;;2.33;1.10;;;13.30;99.90;;;;;;5051623;28;20774;-66
2022/09/11 00:40:44;;;;;;;1.83;0.87;;;13.20;99.90;;;;;;5051448;28;20201;-66
2022/09/11 00:43:10;;;;;;;1.70;1.00;;;13.10;99.90;;;;;;5051080;28;20416;-66
2022/09/11 00:45:36;;;;;;;2.40;0.93;;;13.20;99.90;;;;;;5050950;28;20798;-66
2022/09/11 00:48:02;;;;;;;1.43;0.70;;;13.00;99.90;;;;;;5051164;28;20935;-66
2022/09/11 00:50:31;;;;;;;1.47;0.90;;;13.10;99.90;;;;;;5050921;28;20454;-67
2022/09/11 00:53:01;;;;;;;3.63;1.57;;;13.00;99.90;;;;;;5049296;28;20757;-67
2022/09/11 00:55:31;;;;;;;5.63;1.23;;;13.00;99.90;;;;;;5050212;28;20454;-66
2022/09/11 00:58:14;;;;;;;3.30;1.13;;;13.00;99.90;;;;;;5051135;28;20798;-66
2022/09/11 01:00:43;;;;;;;3.13;1.20;;;13.00;99.90;;;;;;5037973;28;20447;-66
2022/09/11 01:03:08;;;;;;;1.60;0.90;;;13.00;99.90;;;;;;5050636;28;20491;-66
2022/09/11 01:05:38;;;;;;;2.23;1.00;;;13.00;99.90;;;;;;5050786;28;20499;-66
2022/09/11 01:08:05;;;;;;;4.80;1.20;;;13.20;99.90;;;;;;5051088;28;20638;-66
2022/09/11 01:11:08;;;;;;;1.50;0.80;;;13.10;99.90;;;;;;5051044;28;20423;-66
2022/09/11 01:13:54;;;;;;;2.17;1.20;;;13.10;99.90;;;;;;5051139;28;20511;-66
2022/09/11 01:16:37;;;;;;;2.13;1.10;;;13.10;99.90;;;;;;5050393;28;20455;-66
2022/09/11 01:19:26;;;;;;;2.40;1.23;;;13.20;99.90;;;;;;5050807;28;20418;-67
2022/09/11 01:22:29;;;;;;;3.90;1.20;;;13.20;99.90;;;;;;5054223;28;20423;-66
2022/09/11 01:25:04;;;;;;;2.70;1.07;;;13.20;99.90;;;;;;5053026;28;20411;-66
2022/09/11 01:27:53;;;;;;;2.07;1.10;;;13.20;99.90;;;;;;5054318;28;21049;-67
2022/09/11 01:30:21;;;;;;;2.20;1.50;;;13.20;99.90;;;;;;5052726;28;20503;-66
2022/09/11 01:33:16;;;;;;;4.07;1.00;;;13.20;99.90;;;;;;5053829;28;20446;-66
2022/09/11 01:36:07;;;;;;;2.53;0.80;;;13.20;99.90;;;;;;5053842;28;20740;-66
2022/09/11 01:38:32;;;;;;;2.57;0.90;;;13.20;99.90;;;;;;5054385;28;20435;-66
2022/09/11 01:41:10;;;;;;;6.07;1.23;;;13.20;99.90;;;;;;5053749;28;20424;-66
2022/09/11 01:43:43;;;;;;;2.93;1.00;;;13.20;99.90;;;;;;5054219;28;20585;-67
2022/09/11 01:46:11;;;;;;;2.07;1.07;;;13.20;99.90;;;;;;5053623;28;20421;-66
2022/09/11 01:48:45;;;;;;;3.77;1.17;;;13.20;99.90;;;;;;5054249;28;20451;-66
2022/09/11 01:51:20;;;;;;;2.50;1.30;;;13.20;99.90;;;;;;5053528;28;20420;-66
2022/09/11 01:53:48;;;;;;;6.93;1.93;;;13.20;99.90;;;;;;5054080;28;20423;-66
2022/09/11 01:56:24;;;;;;;1.80;1.10;;;13.20;99.90;;;;;;5046055;28;20507;-66
2022/09/11 01:58:58;;;;;;;2.33;1.00;;;13.10;99.90;;;;;;5054238;28;20454;-66
2022/09/11 02:01:30;;;;;;;2.77;1.13;;;13.20;99.90;;;;;;5052636;28;20462;-66
2022/09/11 02:03:58;;;;;;;11.30;1.80;;;13.10;99.90;;;;;;5054161;28;20412;-66
2022/09/11 02:06:55;;;;;;;4.13;1.20;;;13.10;99.90;;;;;;5053692;28;20577;-66
2022/09/11 02:09:25;;;;;;;2.17;0.93;;;13.20;99.90;;;;;;5052782;28;20445;-66
2022/09/11 02:11:53;;;;;;;2.80;1.10;;;13.10;99.90;;;;;;5053441;28;20427;-66
2022/09/11 02:14:41;;;;;;;2.90;1.20;;;13.10;99.90;;;;;;5053941;28;20420;-66
2022/09/11 02:17:16;;;;;;;3.20;1.30;;;13.20;99.90;;;;;;5051189;28;20456;-66
2022/09/11 02:19:42;;;;;;;4.33;1.60;;;13.10;99.90;;;;;;5053444;28;20423;-66
2022/09/11 02:22:08;;;;;;;2.50;1.17;;;13.10;99.90;;;;;;5053339;28;20408;-65
2022/09/11 02:24:34;;;;;;;3.87;1.23;;;13.10;99.90;;;;;;5051731;28;20946;-65
2022/09/11 02:27:04;;;;;;;2.40;1.37;;;13.10;99.90;;;;;;5050184;28;20615;-65
2022/09/11 02:29:30;;;;;;;14.20;2.30;;;13.10;99.90;;;;;;5050780;28;20188;-65
2022/09/11 02:31:55;;;;;;;2.30;1.10;;;13.10;99.90;;;;;;5052235;28;20850;-66
2022/09/11 02:34:28;;;;;;;6.43;1.80;;;13.00;99.90;;;;;;5053161;28;20427;-66
2022/09/11 02:37:03;;;;;;;3.33;1.67;;;13.00;99.90;;;;;;5053428;28;20212;-66
2022/09/11 02:39:52;;;;;;;1.97;1.23;;;13.00;99.90;;;;;;5053186;28;20915;-66
2022/09/11 02:42:26;;;;;;;3.50;1.30;;;13.00;99.90;;;;;;5052733;28;20404;-66
2022/09/11 02:45:14;;;;;;;3.47;1.60;;;13.00;99.90;;;;;;5052835;28;20490;-66
2022/09/11 02:47:53;;;;;;;2.77;1.53;;;13.00;99.90;;;;;;5040959;28;20513;-66
2022/09/11 02:51:01;;;;;;;2.20;1.17;;;13.00;99.90;;;;;;5052650;28;20427;-66
2022/09/11 02:53:38;;;;;;;2.73;1.23;;;13.10;99.90;;;;;;5040587;28;20440;-66
2022/09/11 02:56:16;;;;;;;1.90;1.20;;;13.10;99.90;;;;;;5051708;28;20458;-66
2022/09/11 02:59:00;;;;;;;3.67;1.57;;;13.10;99.90;;;;;;5036233;28;20909;-66
2022/09/11 03:01:26;;;;;;;2.23;0.97;;;13.10;99.90;;;;;;5046455;28;20412;-67
2022/09/11 03:03:51;;;;;;;2.30;1.20;;;13.10;99.90;;;;;;5045077;28;21031;-66
2022/09/11 03:06:22;;;;;;;2.27;1.10;;;13.10;99.90;;;;;;5036036;28;20193;-66
2022/09/11 03:08:48;;;;;;;3.83;1.83;;;13.10;99.90;;;;;;5052542;28;20552;-66
2022/09/11 03:11:16;;;;;;;2.67;1.43;;;13.10;99.90;;;;;;5051911;28;21103;-66
2022/09/11 03:13:43;;;;;;;2.00;1.00;;;13.10;99.90;;;;;;5052718;28;20425;-67
2022/09/11 03:16:09;;;;;;;2.87;1.60;;;13.10;99.90;;;;;;5038331;28;20932;-66
2022/09/11 03:18:35;;;;;;;2.63;1.53;;;13.10;99.90;;;;;;5052523;28;20423;-66
2022/09/11 03:21:02;;;;;;;6.93;1.87;;;13.00;99.90;;;;;;5051598;28;20459;-66
2022/09/11 03:23:28;;;;;;;9.33;1.93;;;13.10;99.90;;;;;;5052292;28;20427;-66
2022/09/11 03:25:54;;;;;;;6.13;1.43;;;13.10;99.90;;;;;;5052166;28;20416;-66
2022/09/11 03:28:24;;;;;;;3.50;1.47;;;13.10;99.90;;;;;;5041866;28;20551;-66
2022/09/11 03:30:51;;;;;;;4.43;1.20;;;13.10;99.90;;;;;;5037490;28;20209;-67
2022/09/11 03:33:17;;;;;;;2.43;1.50;;;13.10;99.90;;;;;;5051909;28;20417;-67
2022/09/11 03:35:43;;;;;;;4.03;1.50;;;13.10;99.90;;;;;;5052148;28;20431;-66
2022/09/11 03:38:10;;;;;;;6.47;2.50;;;13.10;99.90;;;;;;5052614;28;20205;-66
2022/09/11 03:40:36;;;;;;;3.07;1.30;;;13.10;99.90;;;;;;5039302;28;20185;-67
2022/09/11 03:43:02;;;;;;;2.70;1.20;;;13.10;99.90;;;;;;5051304;28;20420;-66
2022/09/11 03:45:28;;;;;;;2.20;1.30;;;13.20;99.90;;;;;;5051783;28;20806;-67
2022/09/11 03:47:54;;;;;;;1.80;1.30;;;13.20;99.90;;;;;;5051960;28;20193;-66
2022/09/11 03:50:20;;;;;;;2.23;1.13;;;13.20;99.90;;;;;;5038744;28;20182;-67
2022/09/11 03:52:45;;;;;;;4.40;1.20;;;13.20;99.90;;;;;;5051465;28;20189;-66
2022/09/11 03:55:11;;;;;;;2.97;1.57;;;13.20;99.90;;;;;;5047753;28;20697;-66
2022/09/11 03:57:38;;;;;;;10.93;1.70;;;13.20;99.90;;;;;;5051791;28;20233;-66
2022/09/11 04:00:05;;;;;;;3.07;1.50;;;13.30;99.90;;;;;;5051491;28;20177;-67
2022/09/11 04:02:31;;;;;;;3.10;1.57;;;13.20;99.90;;;;;;5051330;28;20422;-67
2022/09/11 04:04:56;;;;;;;1.73;1.00;;;13.20;99.90;;;;;;5051328;28;20503;-67
2022/09/11 04:07:23;;;;;;;2.13;1.37;;;13.20;99.90;;;;;;5051649;28;20771;-66
2022/09/11 04:09:48;;;;;;;2.07;1.27;;;13.20;99.90;;;;;;5051650;28;20189;-66
2022/09/11 04:12:15;;;;;;;4.30;1.83;;;13.20;99.90;;;;;;5051270;28;20416;-67
2022/09/11 04:14:40;;;;;;;2.40;1.30;;;13.10;99.90;;;;;;5049776;28;20212;-66
2022/09/11 04:17:07;;;;;;;5.30;1.43;;;13.10;99.90;;;;;;5040054;28;20507;-66
2022/09/11 04:19:33;;;;;;;1.97;1.07;;;13.20;99.90;;;;;;5051537;28;20632;-67
2022/09/11 04:21:58;;;;;;;3.13;1.70;;;13.20;99.90;;;;;;5051045;28;20424;-67
2022/09/11 04:24:24;;;;;;;2.00;1.20;;;13.20;99.90;;;;;;5049444;28;20417;-67
2022/09/11 04:26:50;;;;;;;2.53;1.37;;;13.20;99.90;;;;;;5043501;28;20204;-66
2022/09/11 04:29:16;;;;;;;3.20;1.27;;;13.20;99.90;;;;;;5045051;28;20240;-66
2022/09/11 04:31:42;;;;;;;3.93;2.10;;;13.10;99.90;;;;;;5050865;28;20178;-67
2022/09/11 04:34:08;;;;;;;2.60;1.50;;;13.10;99.90;;;;;;5051375;28;20412;-66
2022/09/11 04:36:34;;;;;;;2.57;1.40;;;13.10;99.90;;;;;;5051247;28;20517;-66
2022/09/11 04:39:00;;;;;;;3.13;1.73;;;13.20;99.90;;;;;;5051515;28;20983;-66
2022/09/11 04:41:26;;;;;;;2.50;1.43;;;13.20;99.90;;;;;;5050864;28;20509;-66
2022/09/11 04:43:56;;;;;;;11.27;1.80;;;13.20;99.90;;;;;;5051143;28;20173;-67
2022/09/11 04:46:23;;;;;;;2.00;1.20;;;13.20;99.90;;;;;;5039521;28;20420;-66
2022/09/11 04:48:51;;;;;;;2.30;1.37;;;13.10;99.90;;;;;;5051475;28;20415;-66
2022/09/11 04:51:26;;;;;;;2.60;1.13;;;13.10;99.90;;;;;;5050604;28;21458;-66
2022/09/11 04:53:56;;;;;;;3.40;1.53;;;13.10;99.90;;;;;;5045321;28;20931;-66
2022/09/11 04:56:30;;;;;;;3.00;1.70;;;13.10;99.90;;;;;;5052608;28;20459;-66
2022/09/11 04:58:58;;;;;;;2.20;1.53;;;13.20;99.90;;;;;;5041555;28;20412;-66
2022/09/11 05:01:26;;;;;;;3.77;2.30;;;13.20;99.90;;;;;;5054203;28;20885;-66
2022/09/11 05:03:51;;;;;;;5.10;1.97;;;13.20;99.90;;;;;;5055444;28;20491;-66
2022/09/11 05:06:17;;;;;;;3.30;1.77;;;13.20;99.90;;;;;;5055023;28;20582;-67
2022/09/11 05:08:44;;;;;;;2.73;1.80;;;13.20;99.90;;;;;;5055109;28;20186;-66
2022/09/11 05:11:15;;;;;;;4.53;1.93;;;13.20;99.90;;;;;;5054597;28;20264;-66
2022/09/11 05:13:41;;;;;;;2.50;1.67;;;13.20;99.90;;;;;;5054850;28;20744;-66
2022/09/11 05:16:13;;;;;;;3.20;1.53;;;13.30;99.90;;;;;;5054574;28;20424;-66
2022/09/11 05:18:40;;;;;;;2.30;1.47;;;13.20;99.90;;;;;;5042213;28;20953;-66
2022/09/11 05:21:11;;;;;;;3.03;1.50;;;13.30;99.90;;;;;;5053822;28;20420;-66
2022/09/11 05:23:38;;;;;;;2.87;1.97;;;13.30;99.90;;;;;;5054791;28;20429;-66
2022/09/11 05:26:05;;;;;;;2.80;1.57;;;13.30;99.90;;;;;;5054636;28;20575;-66
2022/09/11 05:28:32;;;;;;;3.37;1.70;;;13.40;99.90;;;;;;5046822;28;20428;-67
2022/09/11 05:30:58;;;;;;;3.10;1.97;;;13.40;99.90;;;;;;5052562;28;20809;-66
2022/09/11 05:33:25;;;;;;;3.00;1.77;;;13.30;99.90;;;;;;5054125;28;20424;-66
2022/09/11 05:35:53;;;;;;;2.87;1.53;;;13.40;99.90;;;;;;5053854;28;20529;-66
2022/09/11 05:38:19;;;;;;;2.90;1.70;;;13.40;99.90;;;;;;5054487;28;20436;-66
2022/09/11 05:40:48;;;;;;;4.50;2.00;;;13.40;99.90;;;;;;5054076;28;20428;-66
2022/09/11 05:43:14;;;;;;;4.10;2.10;;;13.50;99.90;;;;;;5053943;28;20486;-66
2022/09/11 05:45:41;;;;;;;3.20;1.60;;;13.40;99.90;;;;;;5053762;28;20528;-66
2022/09/11 05:48:07;;;;;;;4.53;1.83;;;13.50;99.90;;;;;;5054020;28;20463;-66
2022/09/11 05:50:33;;;;;;;3.13;1.63;;;13.50;99.90;;;;;;5053685;28;20760;-66
2022/09/11 05:52:59;;;;;;;4.67;2.40;;;13.50;99.90;;;;;;5053751;28;20424;-66
2022/09/11 05:55:25;;;;;;;6.03;2.87;;;13.50;99.90;;;;;;5044822;28;20525;-66
2022/09/11 05:57:51;;;;;;;3.00;1.80;;;13.70;99.90;;;;;;5053726;28;20292;-66
2022/09/11 06:00:17;;;;;;;8.33;3.23;;;13.60;99.90;;;;;;5053130;28;20193;-66
2022/09/11 06:02:44;;;;;;;5.87;3.07;;;13.60;99.90;;;;;;5053339;28;20432;-66
2022/09/11 06:05:10;;;;;;;5.63;2.10;;;13.70;99.90;;;;;;5053252;28;20705;-66
2022/09/11 06:07:35;;;;;;;9.43;2.70;;;13.70;99.90;;;;;;5053809;28;20498;-66
2022/09/11 06:10:01;;;;;;;6.20;3.17;;;13.80;99.90;;;;;;5053649;28;20465;-66
2022/09/11 06:12:27;;;;;;;5.47;2.50;;;13.80;99.90;;;;;;5053406;28;20572;-66
2022/09/11 06:14:53;;;;;;;3.27;2.23;;;13.80;99.90;;;;;;5052966;28;20200;-66
2022/09/11 06:17:20;;;;;;;4.13;2.53;;;13.90;99.90;;;;;;5053587;28;20682;-67
2022/09/11 06:19:46;;;;;;;3.07;2.37;;;13.80;99.90;;;;;;5053529;28;20416;-66
2022/09/11 06:22:12;;;;;;;6.50;2.70;;;13.80;99.90;;;;;;5053031;28;20416;-66
2022/09/11 06:24:37;;;;;;;7.00;2.83;;;13.90;99.90;;;;;;5053362;28;21035;-67
2022/09/11 06:27:03;;;;;;;6.07;2.33;;;13.90;99.90;;;;;;5053590;28;20186;-66
2022/09/11 06:29:31;;;;;;;3.30;2.30;;;14.00;99.90;;;;;;5052465;28;20193;-67
2022/09/11 06:31:58;;;;;;;6.93;2.73;;;14.00;99.90;;;;;;5052695;28;20611;-66
2022/09/11 06:34:24;;;;;;;4.40;2.00;;;14.00;99.90;;;;;;5053685;28;20478;-67
2022/09/11 06:36:50;;;;;;;8.40;2.80;;;14.10;99.90;;;;;;5053269;28;20468;-66
2022/09/11 06:39:15;;;;;;;4.10;2.60;;;14.10;99.90;;;;;;5039916;28;20183;-66
2022/09/11 06:41:42;;;;;;;6.10;3.20;;;14.20;99.90;;;;;;5052624;28;20498;-66
2022/09/11 06:44:08;;;;;;;4.23;2.60;;;14.20;99.90;;;;;;5053175;28;20273;-66
2022/09/11 06:46:34;;;;;;;9.03;2.63;;;14.30;99.90;;;;;;5052757;28;20420;-66
2022/09/11 06:49:00;;;;;;;4.87;3.17;;;14.30;99.90;;;;;;5051268;28;20421;-66
2022/09/11 06:51:27;;;;;;;12.43;3.50;;;14.30;99.90;;;;;;5052326;28;20260;-66
2022/09/11 06:53:56;;;;;;;3.70;2.80;;;14.30;99.90;;;;;;5052930;28;20428;-66
2022/09/11 06:56:22;;;;;;;7.20;3.63;;;14.30;99.90;;;;;;5042712;28;20817;-66
2022/09/11 06:58:49;;;;;;;5.53;3.60;;;14.30;99.90;;;;;;5052836;28;20416;-66
2022/09/11 07:01:19;;;;;;;6.73;4.10;;;14.40;99.90;;;;;;5051919;28;20188;-66
2022/09/11 07:03:46;;;;;;;8.10;4.37;;;14.40;99.90;;;;;;5052860;28;20432;-66
2022/09/11 07:06:17;;;;;;;5.43;3.17;;;14.50;99.90;;;;;;5052432;28;20474;-66
2022/09/11 07:08:43;;;;;;;11.20;3.63;;;14.60;99.90;;;;;;5052655;28;20779;-66
2022/09/11 07:11:11;;;;;;;8.07;3.70;;;14.60;99.90;;;;;;5051978;28;20425;-66
2022/09/11 07:13:37;;;;;;;6.83;3.70;;;14.70;99.90;;;;;;5052348;28;20177;-65
2022/09/11 07:16:08;;;;;;;4.17;3.10;;;14.70;99.90;;;;;;5045699;28;20428;-65
2022/09/11 07:18:38;;;;;;;7.83;4.67;;;14.80;99.90;;;;;;5051126;28;20412;-65
2022/09/11 07:21:21;;;;;;;7.10;4.63;;;14.90;99.90;;;;;;5051424;28;20416;-66
2022/09/11 07:23:49;;;;;;;6.80;3.90;;;14.90;99.90;;;;;;5052542;28;20542;-66
2022/09/11 07:26:16;;;;;;;14.03;5.00;;;15.00;99.90;;;;;;5051969;28;20459;-65
2022/09/11 07:28:41;;;;;;;7.07;3.40;;;15.00;99.90;;;;;;5052235;28;20905;-66
2022/09/11 07:31:13;;;;;;;10.90;5.60;;;15.10;99.90;;;;;;5050306;28;20420;-65
2022/09/11 07:33:41;;;;;;;6.97;3.80;;;15.10;99.90;;;;;;5052397;28;20190;-65
2022/09/11 07:36:12;;;;;;;8.63;4.20;;;15.10;99.90;;;;;;5051471;28;20503;-66
2022/09/11 07:38:42;;;;;;;6.83;3.67;;;15.10;99.90;;;;;;5052218;28;20427;-66
2022/09/11 07:41:09;;;;;;;6.10;3.97;;;15.10;99.90;;;;;;5051343;28;20752;-65
2022/09/11 07:43:35;;;;;;;8.47;3.43;;;15.10;99.90;;;;;;5051952;28;20931;-65
2022/09/11 07:46:02;;;;;;;6.23;4.30;;;15.10;99.90;;;;;;5051444;28;20416;-65
2022/09/11 07:48:28;;;;;;;13.90;5.73;;;15.10;99.90;;;;;;5051985;28;20416;-66
2022/09/11 07:51:03;;;;;;;9.63;4.93;;;15.20;99.90;;;;;;5051306;28;20776;-66
2022/09/11 07:53:42;;;;;;;8.83;3.43;;;15.20;99.90;;;;;;5052090;28;20972;-65
2022/09/11 07:56:10;;;;;;;11.67;4.47;;;15.20;99.90;;;;;;5051608;28;20443;-66
2022/09/11 07:58:38;;;;;;;6.17;3.90;;;15.20;99.90;;;;;;5051901;28;20436;-65
2022/09/11 08:01:10;;;;;;;20.07;5.43;;;15.20;99.90;;;;;;5042066;28;20430;-65
2022/09/11 08:03:36;;;;;;;8.07;4.77;;;15.30;99.90;;;;;;5048281;28;20416;-65
2022/09/11 08:06:07;;;;;;;13.73;4.00;;;15.30;99.90;;;;;;5051681;28;20416;-65
2022/09/11 08:08:34;;;;;;;5.20;2.90;;;15.40;99.90;;;;;;5051942;28;20425;-66
2022/09/11 08:11:12;;;;;;;4.50;2.70;;;15.40;99.90;;;;;;5051254;28;20447;-66
2022/09/11 08:13:39;;;;;;;5.50;3.20;;;15.60;99.90;;;;;;5046114;28;20750;-66
2022/09/11 08:16:05;;;;;;;5.87;3.23;;;15.80;99.90;;;;;;5039014;28;20555;-65
2022/09/11 08:18:34;;;;;;;6.90;3.40;;;16.00;99.90;;;;;;5051333;28;20431;-66
2022/09/11 08:21:07;;;;;;;5.80;3.60;;;16.20;99.90;;;;;;5050474;28;20491;-66
2022/09/11 08:23:33;;;;;;;6.67;3.00;;;16.30;99.90;;;;;;5039002;28;20558;-65
2022/09/11 08:26:26;;;;;;;9.43;4.13;;;16.60;99.90;;;;;;5045442;28;20433;-66
2022/09/11 08:28:54;;;;;;;8.50;2.60;;;17.20;99.90;;;;;;5042294;28;20440;-66
2022/09/11 08:31:24;;;;;;;4.77;2.77;;;17.90;99.90;;;;;;5046044;28;20431;-66
2022/09/11 08:33:50;;;;;;;5.40;3.50;;;18.40;99.90;;;;;;5046318;28;20422;-65
2022/09/11 08:36:15;;;;;;;5.53;3.20;;;18.30;99.90;;;;;;5044718;28;20444;-66
2022/09/11 08:38:42;;;;;;;5.17;2.93;;;18.60;99.90;;;;;;5044615;28;20178;-66
2022/09/11 08:41:19;;;;;;;5.00;2.40;;;18.50;99.90;;;;;;5047460;28;20667;-66
2022/09/11 08:44:14;;;;;;;4.80;2.90;;;18.70;99.90;;;;;;5055625;28;20851;-67
2022/09/11 08:46:47;;;;;;;5.80;3.10;;;19.20;99.90;;;;;;5042763;28;21094;-66
2022/09/11 08:49:23;;;;;;;6.17;2.93;;;19.30;99.90;;;;;;5055293;28;20904;-66
2022/09/11 08:51:52;;;;;;;5.33;2.60;;;19.00;99.90;;;;;;5054472;28;20416;-66
2022/09/11 08:54:26;;;;;;;4.03;2.53;;;18.60;99.90;;;;;;5054876;28;20412;-66
2022/09/11 08:56:54;;;;;;;9.50;3.60;;;18.10;99.90;;;;;;5054346;28;21034;-66
2022/09/11 08:59:22;;;;;;;12.13;3.30;;;17.80;99.90;;;;;;5054668;28;20554;-65
2022/09/11 09:02:08;;;;;;;4.77;3.23;;;17.50;99.90;;;;;;5053498;28;20438;-65
2022/09/11 09:04:50;;;;;;;5.70;3.60;;;17.20;99.90;;;;;;5053890;28;20408;-65
2022/09/11 09:07:36;;;;;;;5.10;2.83;;;16.90;99.90;;;;;;5041274;28;20500;-66
2022/09/11 09:10:15;;;;;;;8.70;3.63;;;17.40;99.90;;;;;;5054027;28;20428;-66
2022/09/11 09:12:55;;;;;;;5.40;2.80;;;18.20;99.90;;;;;;5053792;28;20511;-65
2022/09/11 09:15:29;;;;;;;5.63;2.90;;;18.60;99.90;;;;;;5053717;28;20408;-66
2022/09/11 09:18:13;;;;;;;4.87;2.60;;;18.50;99.90;;;;;;5053028;28;20845;-65
2022/09/11 09:20:44;;;;;;;5.20;3.50;;;18.70;99.90;;;;;;5053658;28;20423;-66
2022/09/11 09:23:22;;;;;;;6.53;3.60;;;19.20;99.90;;;;;;5053518;28;20462;-65
2022/09/11 09:25:51;;;;;;;5.37;2.87;;;19.70;99.90;;;;;;5041748;28;20417;-65
2022/09/11 09:28:19;;;;;;;4.60;2.77;;;19.90;99.90;;;;;;5053286;28;20476;-65
2022/09/11 09:30:50;;;;;;;5.60;2.67;;;20.20;99.90;;;;;;5052492;28;20443;-66
2022/09/11 09:33:33;;;;;;;5.83;3.33;;;20.30;99.90;;;;;;5053212;28;20920;-65
2022/09/11 09:36:20;;;;;;;6.13;3.00;;;20.20;99.90;;;;;;5053292;28;20408;-66
2022/09/11 09:38:45;;;;;;;6.40;2.37;;;19.50;99.90;;;;;;5053898;28;20427;-65
2022/09/11 09:41:35;;;;;;;6.40;2.93;;;19.10;99.90;;;;;;5052246;28;20420;-66
2022/09/11 09:44:21;;;;;;;6.27;2.80;;;18.60;99.90;;;;;;5053861;28;20181;-65
2022/09/11 09:46:50;;;;;;;6.27;3.00;;;18.20;99.90;;;;;;5053431;28;20415;-65
2022/09/11 09:49:37;;;;;;;3.50;2.20;;;18.00;99.90;;;;;;5053839;28;21058;-65
2022/09/11 09:52:16;;;;;;;5.87;3.37;;;17.80;99.90;;;;;;5052861;28;20423;-65
2022/09/11 09:54:43;;;;;;;6.40;3.40;;;17.60;99.90;;;;;;5053605;28;20419;-65
2022/09/11 09:57:10;;;;;;;6.80;2.83;;;17.50;99.90;;;;;;5054286;28;20822;-65
2022/09/11 09:59:51;;;;;;;7.13;3.90;;;17.40;99.90;;;;;;5052783;28;20446;-65
2022/09/11 10:02:53;;;;;;;4.30;2.60;;;17.40;99.90;;;;;;5053625;28;20735;-65
2022/09/11 10:05:26;;;;;;;6.47;3.13;;;17.20;99.90;;;;;;5050004;28;20876;-65
2022/09/11 10:07:58;;;;;;;5.67;2.73;;;17.20;99.90;;;;;;5053653;28;20459;-65
2022/09/11 10:10:28;;;;;;;6.03;3.30;;;17.20;99.90;;;;;;5053694;28;20515;-65
2022/09/11 10:12:58;;;;;;;8.03;3.27;;;17.20;99.90;;;;;;5053159;28;20934;-65
2022/09/11 10:15:24;;;;;;;7.10;3.60;;;17.10;99.90;;;;;;5053282;28;20424;-65
2022/09/11 10:17:50;;;;;;;5.60;3.53;;;17.20;99.90;;;;;;5053561;28;20488;-65
2022/09/11 10:20:22;;;;;;;6.60;3.83;;;17.20;99.90;;;;;;5053503;28;20888;-66
2022/09/11 10:22:49;;;;;;;6.13;3.70;;;17.20;99.90;;;;;;5052705;28;20420;-66
2022/09/11 10:25:26;;;;;;;4.83;3.20;;;17.20;99.90;;;;;;5051131;28;20473;-65
2022/09/11 10:27:55;;;;;;;6.50;3.40;;;17.30;99.90;;;;;;5040417;28;20427;-66
2022/09/11 10:30:41;;;;;;;7.20;2.90;;;17.70;99.90;;;;;;5052360;28;20813;-65
2022/09/11 10:33:33;;;;;;;4.50;3.30;;;18.10;99.90;;;;;;5052747;28;20507;-65
2022/09/11 10:36:02;;;;;;;5.43;3.30;;;18.40;99.90;;;;;;5050417;28;20779;-65
2022/09/11 10:38:43;;;;;;;5.67;2.50;;;18.80;99.90;;;;;;5047606;28;20468;-65
2022/09/11 10:41:12;;;;;;;5.30;2.77;;;19.20;99.90;;;;;;5052792;28;20511;-66
2022/09/11 10:44:01;;;;;;;6.40;2.57;;;19.40;99.90;;;;;;5053255;28;20808;-66
2022/09/11 10:47:00;;;;;;;5.37;2.43;;;19.90;99.90;;;;;;5041694;28;20420;-65
2022/09/11 10:49:26;;;;;;;6.63;3.13;;;20.10;99.90;;;;;;5039866;28;20408;-66
2022/09/11 10:52:09;;;;;;;4.47;2.67;;;19.90;99.90;;;;;;5052081;28;20767;-65
2022/09/11 10:55:00;;;;;;;4.37;2.40;;;20.00;99.90;;;;;;5041755;28;20217;-66
2022/09/11 10:57:44;;;;;;;7.20;2.90;;;20.00;99.90;;;;;;5052869;28;20483;-66
2022/09/11 11:00:27;;;;;;;10.07;2.90;;;20.10;99.90;;;;;;5052519;28;20416;-65
2022/09/11 11:03:11;;;;;;;3.10;1.90;;;19.80;99.90;;;;;;5052727;28;20416;-65
2022/09/11 11:06:03;;;;;;;8.63;2.70;;;19.50;99.90;;;;;;5052680;28;20900;-66
2022/09/11 11:08:58;;;;;;;3.97;2.63;;;19.40;99.90;;;;;;5052121;28;20428;-64
2022/09/11 11:11:39;;;;;;;3.93;2.20;;;19.20;99.90;;;;;;5052364;28;20423;-64
2022/09/11 11:14:38;;;;;;;6.80;2.87;;;18.90;99.90;;;;;;5052898;28;20409;-64
2022/09/11 11:17:37;;;;;;;6.03;2.90;;;18.70;99.90;;;;;;5040670;28;20452;-64
2022/09/11 11:20:15;;;;;;;4.70;2.40;;;18.50;99.90;;;;;;5045007;28;20420;-64
2022/09/11 11:22:50;;;;;;;5.60;2.00;;;18.40;99.90;;;;;;5045016;28;20799;-64
2022/09/11 11:25:33;;;;;;;3.23;1.73;;;18.30;99.90;;;;;;5050610;28;20838;-65
2022/09/11 11:28:24;;;;;;;6.50;2.93;;;18.20;99.90;;;;;;5050733;28;21141;-65
2022/09/11 11:31:18;;;;;;;5.80;2.47;;;18.20;99.90;;;;;;5047398;28;20443;-65
2022/09/11 11:34:05;;;;;;;3.23;2.07;;;18.10;99.90;;;;;;5050753;28;20946;-65
2022/09/11 11:36:38;;;;;;;3.47;2.60;;;18.20;99.90;;;;;;5050341;28;20471;-65
2022/09/11 11:39:07;;;;;;;3.63;1.83;;;18.70;99.90;;;;;;5050616;28;20458;-65
2022/09/11 11:41:43;;;;;;;3.23;2.10;;;19.10;99.90;;;;;;5049953;28;20424;-64
2022/09/11 11:44:14;;;;;;;3.70;2.13;;;19.40;99.80;;;;;;5050559;28;20502;-64
2022/09/11 11:46:51;;;;;;;5.73;2.23;;;20.00;97.60;;;;;;5050233;28;20917;-65
2022/09/11 11:49:35;;;;;;;5.13;2.30;;;20.20;97.50;;;;;;5050412;28;20455;-64
2022/09/11 11:52:18;;;;;;;4.60;2.33;;;20.60;98.30;;;;;;5049019;28;20426;-64
2022/09/11 11:54:54;;;;;;;2.60;1.53;;;20.90;98.30;;;;;;5044481;28;20436;-66
2022/09/11 11:57:24;;;;;;;2.70;1.90;;;21.40;95.90;;;;;;5049557;28;20463;-66
2022/09/11 12:00:07;;;;;;;3.17;2.00;;;21.60;96.80;;;;;;5051425;28;20919;-66
2022/09/11 12:02:55;;;;;;;3.00;2.03;;;21.90;95.80;;;;;;5039148;28;20416;-66
2022/09/11 12:05:30;;;;;;;2.97;1.83;;;22.20;93.60;;;;;;5051134;28;20428;-66
2022/09/11 12:07:57;;;;;;;3.73;1.80;;;22.40;93.10;;;;;;5051521;28;20420;-66
2022/09/11 12:10:25;;;;;;;3.10;1.50;;;22.30;94.70;;;;;;5051853;28;20427;-66
2022/09/11 12:12:57;;;;;;;5.63;2.00;;;22.20;94.00;;;;;;5051067;28;20475;-66
2022/09/11 12:15:28;;;;;;;9.93;2.60;;;22.00;93.40;;;;;;5051336;28;20447;-66
2022/09/11 12:18:10;;;;;;;3.30;1.77;;;21.60;93.30;;;;;;5051652;28;20470;-66
2022/09/11 12:20:38;;;;;;;3.70;1.80;;;21.50;94.30;;;;;;5051719;28;20412;-66
2022/09/11 12:23:06;;;;;;;3.00;1.97;;;21.20;94.70;;;;;;5050808;28;20463;-66
2022/09/11 12:25:34;;;;;;;2.80;1.70;;;21.00;94.30;;;;;;5048815;28;20920;-65
2022/09/11 12:28:33;;;;;;;2.23;1.30;;;20.70;94.90;;;;;;5051615;28;20434;-66
2022/09/11 12:31:17;;;;;;;3.93;1.97;;;20.50;95.60;;;;;;5037840;28;20436;-66
2022/09/11 12:33:43;;;;;;;5.20;2.47;;;20.50;95.60;;;;;;5051767;28;20507;-66
2022/09/11 12:36:11;;;;;;;4.37;2.47;;;20.60;95.70;;;;;;5050980;28;20881;-66
2022/09/11 12:38:46;;;;;;;4.10;2.40;;;20.60;95.60;;;;;;5051577;28;20432;-65
2022/09/11 12:41:33;;;;;;;3.70;2.30;;;20.80;95.70;;;;;;5051104;28;20436;-66
2022/09/11 12:43:59;;;;;;;3.77;2.33;;;20.70;96.00;;;;;;5050886;28;20486;-66
2022/09/11 12:46:26;;;;;;;2.83;1.70;;;20.80;95.30;;;;;;5051258;28;20430;-65
2022/09/11 12:48:55;;;;;;;3.00;2.03;;;20.80;95.00;;;;;;5051543;28;20916;-65
2022/09/11 12:51:26;;;;;;;3.47;1.50;;;20.80;95.10;;;;;;5051002;28;20571;-66
2022/09/11 12:53:59;;;;;;;6.27;2.07;;;20.90;95.00;;;;;;5051474;28;20428;-65
2022/09/11 12:56:30;;;;;;;5.10;1.97;;;21.00;93.50;;;;;;5044016;28;20464;-65
2022/09/11 12:59:08;;;;;;;3.67;1.90;;;21.20;93.40;;;;;;5039359;28;20428;-65
2022/09/11 13:01:44;;;;;;;3.27;1.77;;;21.20;93.30;;;;;;5048687;28;20424;-66
2022/09/11 13:04:09;;;;;;;3.63;2.30;;;21.00;93.60;;;;;;5049840;28;20469;-66
2022/09/11 13:06:46;;;;;;;5.43;2.50;;;21.20;93.50;;;;;;5045858;28;20425;-65
2022/09/11 13:09:40;;;;;;;3.50;1.80;;;21.00;95.50;;;;;;5049903;28;20661;-65
2022/09/11 13:12:24;;;;;;;3.00;1.60;;;21.00;93.70;;;;;;5049395;28;20881;-65